createdAt,value
2018-08-13T00:00:28.341Z,10.50
2018-08-13T00:02:56.970Z,10.13
2018-08-13T00:05:24.965Z,10.00
2018-08-13T00:07:52.909Z,10.83
2018-08-13T00:10:21.044Z,11.73
2018-08-13T00:12:48.869Z,9.27
2018-08-13T00:15:16.816Z,9.73
2018-08-13T00:17:45.357Z,10.63
2018-08-13T00:20:13.370Z,11.23
2018-08-13T00:22:41.363Z,13.27
2018-08-13T00:25:09.206Z,10.93
2018-08-13T00:27:38.160Z,11.00
2018-08-13T00:30:06.913Z,11.13
2018-08-13T00:32:34.880Z,13.40
2018-08-13T00:35:02.666Z,11.27
2018-08-13T00:37:30.727Z,16.70
2018-08-13T00:39:58.789Z,10.50
2018-08-13T00:42:26.681Z,10.87
2018-08-13T00:44:55.609Z,11.13
2018-08-13T00:47:23.554Z,12.83
2018-08-13T00:49:51.597Z,11.87
2018-08-13T00:52:19.427Z,10.50
2018-08-13T00:54:47.303Z,12.50
2018-08-13T00:57:15.789Z,10.23
2018-08-13T00:59:45.138Z,12.10
2018-08-13T01:02:13.978Z,11.80
2018-08-13T01:04:42.164Z,11.30
2018-08-13T01:07:10.571Z,11.30
2018-08-13T01:09:39.323Z,12.80
2018-08-13T01:12:08.234Z,10.73
2018-08-13T01:14:36.107Z,11.90
2018-08-13T01:17:04.681Z,10.50
2018-08-13T01:19:32.469Z,10.20
2018-08-13T01:22:00.803Z,10.30
2018-08-13T01:24:28.714Z,12.33
2018-08-13T01:26:57.299Z,11.83
2018-08-13T01:29:26.700Z,12.20
2018-08-13T01:31:55.425Z,10.67
2018-08-13T01:34:23.947Z,11.77
2018-08-13T01:36:53.269Z,10.87
2018-08-13T01:39:21.081Z,11.47
2018-08-13T01:41:50.453Z,11.50
2018-08-13T01:44:18.217Z,11.67
2018-08-13T01:46:46.007Z,12.80
2018-08-13T01:49:15.167Z,12.83
2018-08-13T01:51:43.119Z,13.37
2018-08-13T01:54:11.203Z,11.00
2018-08-13T01:56:39.755Z,11.83
2018-08-13T01:59:07.659Z,10.27
2018-08-13T02:01:35.711Z,11.43
2018-08-13T02:04:06.041Z,11.40
2018-08-13T02:06:34.002Z,11.90
2018-08-13T02:09:02.089Z,11.90
2018-08-13T02:11:29.929Z,11.07
2018-08-13T02:13:57.743Z,12.17
2018-08-13T02:16:25.618Z,13.00
2018-08-13T02:18:54.170Z,9.97
2018-08-13T02:21:22.239Z,10.90
2018-08-13T02:23:50.395Z,13.17
2018-08-13T02:26:18.366Z,11.80
2018-08-13T02:28:46.153Z,9.90
2018-08-13T02:31:21.383Z,9.83
2018-08-13T02:33:49.173Z,10.93
2018-08-13T02:36:17.503Z,10.87
2018-08-13T02:38:45.347Z,10.47
2018-08-13T02:41:13.138Z,11.03
2018-08-13T02:43:41.192Z,10.93
2018-08-13T02:46:09.277Z,10.77
2018-08-13T02:48:37.450Z,12.73
2018-08-13T02:51:05.287Z,11.70
2018-08-13T02:53:33.493Z,11.33
2018-08-13T02:56:01.523Z,10.70
2018-08-13T02:58:29.433Z,10.90
2018-08-13T03:00:57.521Z,12.77
2018-08-13T03:03:26.393Z,10.10
2018-08-13T03:05:54.405Z,10.13
2018-08-13T03:08:22.311Z,11.30
2018-08-13T03:10:50.506Z,10.33
2018-08-13T03:13:18.322Z,10.30
2018-08-13T03:15:46.447Z,11.07
2018-08-13T03:18:15.168Z,17.77
2018-08-13T03:20:43.960Z,9.60
2018-08-13T03:23:12.617Z,11.00
2018-08-13T03:25:42.234Z,9.40
2018-08-13T03:28:10.188Z,16.13
2018-08-13T03:30:39.434Z,14.30
2018-08-13T03:33:07.282Z,10.60
2018-08-13T03:35:35.305Z,10.67
2018-08-13T03:38:03.199Z,9.60
2018-08-13T03:40:31.170Z,9.67
2018-08-13T03:42:59.175Z,9.10
2018-08-13T03:45:27.826Z,8.53
2018-08-13T03:47:55.872Z,10.03
2018-08-13T03:50:23.625Z,10.37
2018-08-13T03:52:51.433Z,11.40
2018-08-13T03:55:19.465Z,10.07
2018-08-13T03:57:48.014Z,9.43
2018-08-13T04:00:16.831Z,9.07
2018-08-13T04:02:44.965Z,10.63
2018-08-13T04:05:13.834Z,10.00
2018-08-13T04:07:41.682Z,10.33
2018-08-13T04:10:11.569Z,10.53
2018-08-13T04:12:44.790Z,10.47
2018-08-13T04:15:14.577Z,10.80
2018-08-13T04:17:44.087Z,9.33
2018-08-13T04:20:12.726Z,10.40
2018-08-13T04:22:40.673Z,9.90
2018-08-13T04:25:09.548Z,10.27
2018-08-13T04:27:37.838Z,8.73
2018-08-13T04:30:07.548Z,9.37
2018-08-13T04:32:35.514Z,9.23
2018-08-13T04:35:03.503Z,8.50
2018-08-13T04:37:31.481Z,10.00
2018-08-13T04:40:00.581Z,8.33
2018-08-13T04:42:28.322Z,10.93
2018-08-13T04:44:56.502Z,8.40
2018-08-13T04:47:25.199Z,10.60
2018-08-13T04:49:53.558Z,8.10
2018-08-13T04:52:21.528Z,8.70
2018-08-13T04:54:50.091Z,8.50
2018-08-13T04:57:18.129Z,8.17
2018-08-13T04:59:46.159Z,7.93
2018-08-13T05:02:14.359Z,8.30
2018-08-13T05:04:42.921Z,9.73
2018-08-13T05:07:11.293Z,8.10
2018-08-13T05:09:39.156Z,8.33
2018-08-13T05:12:09.639Z,8.80
2018-08-13T05:14:38.233Z,7.93
2018-08-13T05:17:06.472Z,8.37
2018-08-13T05:19:34.882Z,9.63
2018-08-13T05:22:03.358Z,8.17
2018-08-13T05:24:31.334Z,8.20
2018-08-13T05:26:59.958Z,10.27
2018-08-13T05:29:27.973Z,8.07
2018-08-13T05:31:55.925Z,9.00
2018-08-13T05:34:23.818Z,8.87
2018-08-13T05:36:52.365Z,7.70
2018-08-13T05:39:20.282Z,8.87
2018-08-13T05:41:48.930Z,8.13
2018-08-13T05:44:18.410Z,8.40
2018-08-13T05:46:47.333Z,8.53
2018-08-13T05:49:15.274Z,8.30
2018-08-13T05:51:44.629Z,7.80
2018-08-13T05:54:12.522Z,8.63
2018-08-13T05:56:41.056Z,10.47
2018-08-13T05:59:08.977Z,9.03
2018-08-13T06:01:37.109Z,8.53
2018-08-13T06:04:04.989Z,7.60
2018-08-13T06:06:33.117Z,8.70
2018-08-13T06:09:01.363Z,8.33
2018-08-13T06:11:30.417Z,9.97
2018-08-13T06:13:58.752Z,9.50
2018-08-13T06:16:26.647Z,8.97
2018-08-13T06:18:54.439Z,8.83
2018-08-13T06:21:24.733Z,9.60
2018-08-13T06:23:52.480Z,8.17
2018-08-13T06:26:20.529Z,11.47
2018-08-13T06:28:50.647Z,8.87
2018-08-13T06:31:19.586Z,9.73
2018-08-13T06:33:48.122Z,9.87
2018-08-13T06:36:16.097Z,11.53
2018-08-13T06:38:44.206Z,9.30
2018-08-13T06:41:13.837Z,9.67
2018-08-13T06:43:44.331Z,10.30
2018-08-13T06:46:12.547Z,10.70
2018-08-13T06:48:40.622Z,9.30
2018-08-13T06:51:10.382Z,8.77
2018-08-13T06:53:43.549Z,8.90
2018-08-13T06:56:11.752Z,8.00
2018-08-13T06:58:40.779Z,12.63
2018-08-13T07:01:10.057Z,8.57
2018-08-13T07:03:38.039Z,11.10
2018-08-13T07:06:06.463Z,7.43
2018-08-13T07:08:36.206Z,7.40
2018-08-13T07:11:04.706Z,8.93
2018-08-13T07:13:36.110Z,7.63
2018-08-13T07:16:04.605Z,7.57
2018-08-13T07:18:33.597Z,8.80
2018-08-13T07:21:01.310Z,8.80
2018-08-13T07:23:29.950Z,8.70
2018-08-13T07:25:58.822Z,9.03
2018-08-13T07:28:26.907Z,11.53
2018-08-13T07:30:54.633Z,9.10
2018-08-13T07:33:25.518Z,8.60
2018-08-13T07:35:54.131Z,8.47
2018-08-13T07:38:22.782Z,7.13
2018-08-13T07:40:50.980Z,7.80
2018-08-13T07:43:21.286Z,11.50
2018-08-13T07:45:49.703Z,8.10
2018-08-13T07:48:19.467Z,7.23
2018-08-13T07:50:47.615Z,6.93
2018-08-13T07:53:15.907Z,8.23
2018-08-13T07:55:43.746Z,8.00
2018-08-13T07:58:11.791Z,7.90
2018-08-13T08:00:42.102Z,7.50
2018-08-13T08:03:10.511Z,6.80
2018-08-13T08:05:38.399Z,7.13
2018-08-13T08:08:06.940Z,6.77
2018-08-13T08:10:34.747Z,7.33
2018-08-13T08:13:03.857Z,8.43
2018-08-13T08:15:33.039Z,10.17
2018-08-13T08:18:01.550Z,7.30
2018-08-13T08:20:30.213Z,7.17
2018-08-13T08:22:58.524Z,9.70
2018-08-13T08:25:27.691Z,6.50
2018-08-13T08:27:56.403Z,6.93
2018-08-13T08:30:24.321Z,6.63
2018-08-13T08:32:53.069Z,6.97
2018-08-13T08:35:22.840Z,6.60
2018-08-13T08:37:51.045Z,5.73
2018-08-13T08:40:20.418Z,10.93
2018-08-13T08:42:49.144Z,6.00
2018-08-13T08:45:19.947Z,7.03
2018-08-13T08:47:48.075Z,6.07
2018-08-13T08:50:22.187Z,5.80
2018-08-13T08:53:01.850Z,6.07
2018-08-13T08:55:30.206Z,8.23
2018-08-13T08:57:58.322Z,5.27
2018-08-13T09:00:26.598Z,6.00
2018-08-13T09:02:54.936Z,5.00
2018-08-13T09:05:23.640Z,4.93
2018-08-13T09:07:52.738Z,6.70
2018-08-13T09:10:21.279Z,4.83
2018-08-13T09:12:49.461Z,5.13
2018-08-13T09:15:23.154Z,4.47
2018-08-13T09:17:58.053Z,4.77
2018-08-13T09:20:31.424Z,4.30
2018-08-13T09:23:07.034Z,5.33
2018-08-13T09:25:40.852Z,5.03
2018-08-13T09:28:14.806Z,5.20
2018-08-13T09:30:50.014Z,4.50
2018-08-13T09:33:24.283Z,5.70
2018-08-13T09:35:53.907Z,10.33
2018-08-13T09:38:23.790Z,5.10
2018-08-13T09:40:52.997Z,4.27
2018-08-13T09:43:20.865Z,4.80
2018-08-13T09:45:48.722Z,6.23
2018-08-13T09:48:16.731Z,4.90
2018-08-13T09:50:44.455Z,5.37
2018-08-13T09:53:13.114Z,10.53
2018-08-13T09:55:42.647Z,4.87
2018-08-13T09:58:10.614Z,4.83
2018-08-13T10:00:45.275Z,8.60
2018-08-13T10:03:15.138Z,6.83
2018-08-13T10:05:43.030Z,5.77
2018-08-13T10:08:11.181Z,4.83
2018-08-13T10:10:40.116Z,5.53
2018-08-13T10:13:09.455Z,4.73
2018-08-13T10:15:37.482Z,8.53
2018-08-13T10:18:05.454Z,4.80
2018-08-13T10:20:33.634Z,8.73
2018-08-13T10:23:02.497Z,4.43
2018-08-13T10:25:30.922Z,7.67
2018-08-13T10:27:58.810Z,7.63
2018-08-13T10:30:26.810Z,6.20
2018-08-13T10:32:55.311Z,6.37
2018-08-13T10:35:23.513Z,6.40
2018-08-13T10:37:52.476Z,5.90
2018-08-13T10:40:21.501Z,6.13
2018-08-13T10:42:50.977Z,6.07
2018-08-13T10:45:19.276Z,6.80
2018-08-13T10:47:47.921Z,6.30
2018-08-13T10:50:17.191Z,5.70
2018-08-13T10:52:45.654Z,6.43
2018-08-13T10:55:14.443Z,7.07
2018-08-13T10:57:43.646Z,6.90
2018-08-13T11:00:13.657Z,4.83
2018-08-13T11:02:41.647Z,6.40
2018-08-13T11:05:11.315Z,5.30
2018-08-13T11:07:39.495Z,5.63
2018-08-13T11:10:08.695Z,7.30
2018-08-13T11:12:37.187Z,5.33
2018-08-13T11:15:06.591Z,4.93
2018-08-13T11:17:36.772Z,4.63
2018-08-13T11:20:05.014Z,5.07
2018-08-13T11:22:33.621Z,3.87
2018-08-13T11:25:01.810Z,5.40
2018-08-13T11:27:30.422Z,3.93
2018-08-13T11:29:58.654Z,4.13
2018-08-13T11:32:26.574Z,3.53
2018-08-13T11:34:54.342Z,3.30
2018-08-13T11:37:22.270Z,2.63
2018-08-13T11:39:53.323Z,4.07
2018-08-13T11:42:22.791Z,3.10
2018-08-13T11:44:50.499Z,6.70
2018-08-13T11:47:18.706Z,5.90
2018-08-13T11:49:46.561Z,7.80
2018-08-13T11:52:15.125Z,3.60
2018-08-13T11:54:43.046Z,4.67
2018-08-13T11:57:12.057Z,4.83
2018-08-13T11:59:39.935Z,5.77
2018-08-13T12:02:07.977Z,4.70
2018-08-13T12:04:36.201Z,5.07
2018-08-13T12:07:04.223Z,7.33
2018-08-13T12:09:32.221Z,3.67
2018-08-13T12:12:00.623Z,3.83
2018-08-13T12:14:28.442Z,3.50
2018-08-13T12:16:56.436Z,3.30
2018-08-13T12:19:24.322Z,4.60
2018-08-13T12:21:53.268Z,6.67
2018-08-13T12:24:21.547Z,5.60
2018-08-13T12:26:50.862Z,4.50
2018-08-13T12:29:19.939Z,7.93
2018-08-13T12:31:51.018Z,7.00
2018-08-13T12:34:19.651Z,8.83
2018-08-13T12:36:48.709Z,13.73
2018-08-13T12:39:16.885Z,9.43
2018-08-13T12:41:45.667Z,8.50
2018-08-13T12:44:15.011Z,9.10
2018-08-13T12:46:42.890Z,12.07
2018-08-13T12:49:11.212Z,9.00
2018-08-13T12:51:38.947Z,13.67
2018-08-13T12:54:07.720Z,18.43
2018-08-13T12:56:37.414Z,11.40
2018-08-13T12:59:05.816Z,9.13
2018-08-13T13:01:34.137Z,10.30
2018-08-13T13:04:01.979Z,11.27
2018-08-13T13:06:30.007Z,9.50
2018-08-13T13:08:59.122Z,11.13
2018-08-13T13:11:28.116Z,13.30
2018-08-13T13:13:56.038Z,11.43
2018-08-13T13:16:24.201Z,8.70
2018-08-13T13:18:52.215Z,8.40
2018-08-13T13:21:20.206Z,7.20
2018-08-13T13:23:49.448Z,8.80
2018-08-13T13:26:18.168Z,6.40
2018-08-13T13:28:46.682Z,7.00
2018-08-13T13:31:15.298Z,7.90
2018-08-13T13:33:43.749Z,8.63
2018-08-13T13:36:11.616Z,6.20
2018-08-13T13:38:40.336Z,9.10
2018-08-13T13:41:08.150Z,6.87
2018-08-13T13:43:37.188Z,7.90
2018-08-13T13:46:05.259Z,8.77
2018-08-13T13:48:33.839Z,6.90
2018-08-13T13:51:01.785Z,5.63
2018-08-13T13:53:30.367Z,7.90
2018-08-13T13:55:58.467Z,6.07
2018-08-13T13:58:26.608Z,5.60
2018-08-13T14:00:54.378Z,5.27
2018-08-13T14:03:23.054Z,4.13
2018-08-13T14:05:51.884Z,4.90
2018-08-13T14:08:21.173Z,4.50
2018-08-13T14:10:49.630Z,4.60
2018-08-13T14:13:17.595Z,5.00
2018-08-13T14:15:46.716Z,3.43
2018-08-13T14:18:15.210Z,5.90
2018-08-13T14:20:43.757Z,3.10
2018-08-13T14:23:13.934Z,4.27
2018-08-13T14:25:41.774Z,14.63
2018-08-13T14:28:10.071Z,4.00
2018-08-13T14:30:38.505Z,6.00
2018-08-13T14:33:06.489Z,6.20
2018-08-13T14:35:34.286Z,7.20
2018-08-13T14:38:02.163Z,4.87
2018-08-13T14:40:30.834Z,3.60
2018-08-13T14:42:59.289Z,3.27
2018-08-13T14:45:27.047Z,4.50
2018-08-13T14:47:55.995Z,4.80
2018-08-13T14:50:23.933Z,4.90
2018-08-13T14:52:51.887Z,6.73
2018-08-13T14:55:20.468Z,4.40
2018-08-13T14:57:48.571Z,7.00
2018-08-13T15:00:16.964Z,4.87
2018-08-13T15:02:44.663Z,5.53
2018-08-13T15:05:12.705Z,5.33
2018-08-13T15:07:40.834Z,6.70
2018-08-13T15:10:09.770Z,5.43
2018-08-13T15:12:37.791Z,4.90
2018-08-13T15:15:06.651Z,4.33
2018-08-13T15:17:35.860Z,5.33
2018-08-13T15:20:03.986Z,7.00
2018-08-13T15:22:31.864Z,5.80
2018-08-13T15:25:00.344Z,4.83
2018-08-13T15:27:28.294Z,4.90
2018-08-13T15:29:57.789Z,6.47
2018-08-13T15:32:25.602Z,6.40
2018-08-13T15:34:53.614Z,5.50
2018-08-13T15:37:24.234Z,4.27
2018-08-13T15:39:52.303Z,4.70
2018-08-13T15:42:21.791Z,5.53
2018-08-13T15:44:49.792Z,5.40
2018-08-13T15:47:17.855Z,7.00
2018-08-13T15:49:46.443Z,4.97
2018-08-13T15:52:14.310Z,4.50
2018-08-13T15:54:42.043Z,4.70
2018-08-13T15:57:11.382Z,4.60
2018-08-13T15:59:39.857Z,5.97
2018-08-13T16:02:07.742Z,5.00
2018-08-13T16:04:35.807Z,6.63
2018-08-13T16:07:05.234Z,5.50
2018-08-13T16:09:33.917Z,7.80
2018-08-13T16:12:02.500Z,6.90
2018-08-13T16:14:30.672Z,6.60
2018-08-13T16:16:58.915Z,10.87
2018-08-13T16:19:27.906Z,6.60
2018-08-13T16:21:55.824Z,12.93
2018-08-13T16:24:23.702Z,5.87
2018-08-13T16:26:52.157Z,6.43
2018-08-13T16:29:20.192Z,7.70
2018-08-13T16:31:49.450Z,6.80
2018-08-13T16:34:18.187Z,9.73
2018-08-13T16:36:47.469Z,6.00
2018-08-13T16:39:15.454Z,6.07
2018-08-13T16:41:43.608Z,6.53
2018-08-13T16:44:11.534Z,6.83
2018-08-13T16:46:40.011Z,5.43
2018-08-13T16:49:09.330Z,5.70
2018-08-13T16:51:37.131Z,5.03
2018-08-13T16:54:05.290Z,7.53
2018-08-13T16:56:33.047Z,5.70
2018-08-13T16:59:02.284Z,6.03
2018-08-13T17:01:30.206Z,7.00
2018-08-13T17:03:58.124Z,6.00
2018-08-13T17:06:26.959Z,6.50
2018-08-13T17:08:55.050Z,6.57
2018-08-13T17:11:23.165Z,6.07
2018-08-13T17:13:52.573Z,10.03
2018-08-13T17:16:20.589Z,5.93
2018-08-13T17:18:48.434Z,9.00
2018-08-13T17:21:17.017Z,6.20
2018-08-13T17:23:44.703Z,7.67
2018-08-13T17:26:12.693Z,7.10
2018-08-13T17:28:43.212Z,7.63
2018-08-13T17:31:12.338Z,5.40
2018-08-13T17:33:40.958Z,5.63
2018-08-13T17:36:08.918Z,5.50
2018-08-13T17:38:36.955Z,6.33
2018-08-13T17:41:05.566Z,10.13
2018-08-13T17:43:34.117Z,5.57
2018-08-13T17:46:02.726Z,9.17
2018-08-13T17:48:31.563Z,8.97
2018-08-13T17:50:59.560Z,6.57
2018-08-13T17:53:28.271Z,7.80
2018-08-13T17:55:56.592Z,8.93
2018-08-13T17:58:24.692Z,7.90
2018-08-13T18:00:52.614Z,7.00
2018-08-13T18:03:20.663Z,28.83
2018-08-13T18:05:48.564Z,6.70
2018-08-13T18:08:16.567Z,5.90
2018-08-13T18:10:45.430Z,5.30
2018-08-13T18:13:13.502Z,8.33
2018-08-13T18:15:42.079Z,5.10
2018-08-13T18:18:09.946Z,7.43
2018-08-13T18:20:37.770Z,6.03
2018-08-13T18:23:05.651Z,6.40
2018-08-13T18:25:33.590Z,6.37
2018-08-13T18:28:01.724Z,8.73
2018-08-13T18:30:29.854Z,15.87
2018-08-13T18:32:57.884Z,9.17
2018-08-13T18:35:26.474Z,6.17
2018-08-13T18:37:54.388Z,6.07
2018-08-13T18:40:25.090Z,5.90
2018-08-13T18:42:53.167Z,5.43
2018-08-13T18:45:21.129Z,8.10
2018-08-13T18:47:49.384Z,9.63
2018-08-13T18:50:17.992Z,6.53
2018-08-13T18:52:46.263Z,7.67
2018-08-13T18:55:14.807Z,8.90
2018-08-13T18:57:43.400Z,5.57
2018-08-13T19:00:12.484Z,7.03
2018-08-13T19:02:40.565Z,6.43
2018-08-13T19:05:09.112Z,5.50
2018-08-13T19:07:36.874Z,7.67
2018-08-13T19:10:06.167Z,7.97
2018-08-13T19:12:34.592Z,8.03
2018-08-13T19:15:02.593Z,7.00
2018-08-13T19:17:31.441Z,6.30
2018-08-13T19:19:59.458Z,9.07
2018-08-13T19:22:27.566Z,7.50
2018-08-13T19:24:55.736Z,7.03
2018-08-13T19:27:24.015Z,8.40
2018-08-13T19:29:52.086Z,9.93
2018-08-13T19:32:19.957Z,8.40
2018-08-13T19:34:48.841Z,11.30
2018-08-13T19:37:16.729Z,11.37
2018-08-13T19:39:44.598Z,10.30
2018-08-13T19:42:12.832Z,15.00
2018-08-13T19:44:41.461Z,13.63
2018-08-13T19:47:09.856Z,23.00
2018-08-13T19:49:38.237Z,12.50
2018-08-13T19:52:06.801Z,13.57
2018-08-13T19:54:34.930Z,10.40
2018-08-13T19:57:02.845Z,10.00
2018-08-13T19:59:32.138Z,14.87
2018-08-13T20:02:00.851Z,7.93
2018-08-13T20:04:28.919Z,9.87
2018-08-13T20:06:56.783Z,13.20
2018-08-13T20:09:24.773Z,15.63
2018-08-13T20:11:54.648Z,12.63
2018-08-13T20:14:24.159Z,16.60
2018-08-13T20:16:52.433Z,13.70
2018-08-13T20:19:20.404Z,12.83
2018-08-13T20:21:48.470Z,14.77
2018-08-13T20:24:16.438Z,13.80
2018-08-13T20:26:45.733Z,17.63
2018-08-13T20:29:13.597Z,16.20
2018-08-13T20:31:41.907Z,13.83
2018-08-13T20:34:09.703Z,14.50
2018-08-13T20:36:41.427Z,11.13
2018-08-13T20:39:11.700Z,15.53
2018-08-13T20:41:40.813Z,14.17
2018-08-13T20:44:09.048Z,13.60
2018-08-13T20:46:37.464Z,13.63
2018-08-13T20:49:05.588Z,14.47
2018-08-13T20:51:34.501Z,14.07
2018-08-13T20:54:03.148Z,17.20
2018-08-13T20:56:31.533Z,19.67
2018-08-13T20:58:59.991Z,15.70
2018-08-13T21:01:27.930Z,14.50
2018-08-13T21:03:55.698Z,14.53
2018-08-13T21:06:24.405Z,17.50
2018-08-13T21:08:53.133Z,18.03
2018-08-13T21:11:21.511Z,15.73
2018-08-13T21:13:49.843Z,15.10
2018-08-13T21:16:17.728Z,15.33
2018-08-13T21:18:45.654Z,16.20
2018-08-13T21:21:13.584Z,14.63
2018-08-13T21:23:42.105Z,20.17
2018-08-13T21:26:12.168Z,15.47
2018-08-13T21:28:39.918Z,15.70
2018-08-13T21:31:07.963Z,14.00
2018-08-13T21:33:37.807Z,21.47
2018-08-13T21:36:05.774Z,14.20
2018-08-13T21:38:33.582Z,13.33
2018-08-13T21:41:01.418Z,12.80
2018-08-13T21:43:29.269Z,17.60
2018-08-13T21:45:57.316Z,15.40
2018-08-13T21:48:25.246Z,13.63
2018-08-13T21:50:53.323Z,14.07
2018-08-13T21:53:21.271Z,17.70
2018-08-13T21:55:49.274Z,16.17
2018-08-13T21:58:17.841Z,23.03
2018-08-13T22:00:50.950Z,17.80
2018-08-13T22:03:19.593Z,22.70
2018-08-13T22:05:47.559Z,23.40
2018-08-13T22:08:15.881Z,21.20
2018-08-13T22:10:43.850Z,21.90
2018-08-13T22:13:11.761Z,23.17
2018-08-13T22:15:40.300Z,22.90
2018-08-13T22:18:09.041Z,21.50
2018-08-13T22:20:37.316Z,24.17
2018-08-13T22:23:06.210Z,26.17
2018-08-13T22:25:37.555Z,23.50
2018-08-13T22:28:05.770Z,32.03
2018-08-13T22:30:34.114Z,26.30
2018-08-13T22:33:01.980Z,25.53
2018-08-13T22:35:30.855Z,23.17
2018-08-13T22:40:32.992Z,25.50
2018-08-13T22:43:01.631Z,29.53
2018-08-13T22:45:30.873Z,26.37
2018-08-13T22:47:58.778Z,28.47
2018-08-13T22:50:28.635Z,26.17
2018-08-13T22:52:56.476Z,28.50
2018-08-13T22:55:24.283Z,27.43
2018-08-13T22:57:52.678Z,26.40
2018-08-13T23:00:21.581Z,24.67
2018-08-13T23:02:50.861Z,29.50
2018-08-13T23:05:20.365Z,29.03
2018-08-13T23:07:48.437Z,30.13
2018-08-13T23:10:17.491Z,28.90
2018-08-13T23:12:46.125Z,26.60
2018-08-13T23:15:15.432Z,34.20
2018-08-13T23:17:43.698Z,31.53
2018-08-13T23:20:17.251Z,32.00
2018-08-13T23:22:50.646Z,36.20
2018-08-13T23:25:19.269Z,34.47
2018-08-13T23:27:48.896Z,32.93
2018-08-13T23:30:17.023Z,35.40
2018-08-13T23:32:46.647Z,36.47
2018-08-13T23:35:15.246Z,32.37
2018-08-13T23:37:43.354Z,37.90
2018-08-13T23:40:11.417Z,34.30
2018-08-13T23:42:39.749Z,34.53
2018-08-13T23:45:11.663Z,35.87
2018-08-13T23:47:39.635Z,38.37
2018-08-13T23:50:08.599Z,37.97
2018-08-13T23:52:39.238Z,36.80
2018-08-13T23:55:07.485Z,42.40
2018-08-13T23:57:36.484Z,43.67
